createdAt,value
2023-01-21T00:00:25.278Z,9.10
2023-01-21T00:03:20.314Z,9.88
2023-01-21T00:05:51.657Z,9.18
2023-01-21T00:08:23.245Z,8.75
2023-01-21T00:10:55.586Z,8.65
2023-01-21T00:13:28.448Z,8.27
2023-01-21T00:15:59.594Z,7.38
2023-01-21T00:18:34.260Z,7.80
2023-01-21T00:21:06.421Z,7.82
2023-01-21T00:23:37.978Z,6.75
2023-01-21T00:26:10.679Z,6.97
2023-01-21T00:28:44.049Z,7.05
2023-01-21T00:31:15.799Z,7.97
2023-01-21T00:33:50.592Z,7.30
2023-01-21T00:36:24.938Z,6.82
2023-01-21T00:38:56.423Z,7.30
2023-01-21T00:41:27.550Z,7.60
2023-01-21T00:43:59.189Z,6.68
2023-01-21T00:46:31.641Z,7.20
2023-01-21T00:49:06.582Z,6.82
2023-01-21T00:51:38.063Z,6.85
2023-01-21T00:54:10.331Z,6.55
2023-01-21T00:56:41.439Z,5.78
2023-01-21T00:59:13.084Z,6.13
2023-01-21T01:01:47.266Z,6.25
2023-01-21T01:04:23.273Z,6.78
2023-01-21T01:06:54.495Z,5.43
2023-01-21T01:09:26.033Z,6.25
2023-01-21T01:11:57.496Z,6.10
2023-01-21T01:14:29.984Z,5.93
2023-01-21T01:17:01.186Z,5.70
2023-01-21T01:19:36.198Z,5.70
2023-01-21T01:22:07.251Z,5.05
2023-01-21T01:24:39.146Z,5.30
2023-01-21T01:27:10.237Z,5.38
2023-01-21T01:29:41.659Z,5.50
2023-01-21T01:32:13.447Z,6.07
2023-01-21T01:34:47.771Z,5.38
2023-01-21T01:37:18.833Z,5.80
2023-01-21T01:39:50.066Z,6.07
2023-01-21T01:47:38.268Z,4.90
2023-01-21T01:50:16.082Z,6.13
2023-01-21T01:52:48.520Z,6.05
2023-01-21T01:55:20.223Z,6.32
2023-01-21T01:57:55.658Z,6.75
2023-01-21T02:00:28.014Z,6.65
2023-01-21T02:03:12.614Z,5.90
2023-01-21T02:05:49.948Z,4.93
2023-01-21T02:08:21.501Z,5.03
2023-01-21T02:10:56.345Z,5.80
2023-01-21T02:13:28.109Z,5.43
2023-01-21T02:16:16.698Z,5.35
2023-01-21T02:18:53.271Z,5.15
2023-01-21T02:21:46.758Z,5.32
2023-01-21T02:24:55.262Z,6.32
2023-01-21T02:27:50.123Z,4.85
2023-01-21T02:30:53.900Z,5.45
2023-01-21T02:33:54.156Z,5.00
2023-01-21T02:36:52.419Z,5.18
2023-01-21T02:39:32.498Z,6.10
2023-01-21T02:42:09.087Z,4.97
2023-01-21T02:44:43.551Z,5.70
2023-01-21T02:47:25.598Z,5.80
2023-01-21T02:50:02.732Z,5.65
2023-01-21T02:52:34.089Z,5.22
2023-01-21T02:55:05.825Z,5.65
2023-01-21T02:57:49.713Z,5.55
2023-01-21T03:00:26.409Z,5.78
2023-01-21T03:03:18.503Z,5.35
2023-01-21T03:06:13.149Z,5.63
2023-01-21T03:08:54.897Z,5.90
2023-01-21T03:11:26.555Z,5.85
2023-01-21T03:14:27.504Z,5.63
2023-01-21T03:17:04.727Z,5.30
2023-01-21T03:19:41.791Z,5.88
2023-01-21T03:22:18.412Z,5.50
2023-01-21T03:24:54.242Z,5.40
2023-01-21T03:27:29.894Z,5.43
2023-01-21T03:30:04.959Z,5.40
2023-01-21T03:32:38.801Z,5.53
2023-01-21T03:35:12.027Z,6.00
2023-01-21T03:37:53.113Z,6.25
2023-01-21T03:40:27.765Z,6.22
2023-01-21T03:42:59.316Z,6.25
2023-01-21T03:45:38.953Z,5.88
2023-01-21T03:48:17.269Z,6.32
2023-01-21T03:50:53.477Z,6.20
2023-01-21T03:53:27.483Z,5.60
2023-01-21T03:55:59.473Z,7.15
2023-01-21T03:58:31.452Z,6.20
2023-01-21T04:01:03.200Z,6.93
2023-01-21T04:03:34.516Z,6.25
2023-01-21T04:06:07.086Z,6.65
2023-01-21T04:08:41.156Z,6.88
2023-01-21T04:11:12.783Z,6.68
2023-01-21T04:13:44.389Z,6.55
2023-01-21T04:16:15.763Z,6.57
2023-01-21T04:18:47.866Z,5.72
2023-01-21T04:21:18.981Z,6.68
2023-01-21T04:23:52.843Z,6.43
2023-01-21T04:26:27.021Z,6.43
2023-01-21T04:28:58.327Z,6.63
2023-01-21T04:31:29.948Z,6.32
2023-01-21T04:34:01.472Z,6.32
2023-01-21T04:36:33.502Z,6.10
2023-01-21T04:39:07.647Z,6.28
2023-01-21T04:41:38.563Z,5.72
2023-01-21T04:44:10.066Z,6.53
2023-01-21T04:46:40.982Z,5.88
2023-01-21T04:49:13.034Z,6.20
2023-01-21T04:51:43.897Z,6.43
2023-01-21T04:54:19.131Z,6.05
2023-01-21T04:56:49.993Z,6.78
2023-01-21T04:59:21.926Z,5.72
2023-01-21T05:01:54.436Z,5.40
2023-01-21T05:04:25.784Z,6.10
2023-01-21T05:06:56.879Z,5.55
2023-01-21T05:09:30.910Z,5.55
2023-01-21T05:12:02.190Z,5.90
2023-01-21T05:14:33.567Z,5.50
2023-01-21T05:17:04.606Z,5.65
2023-01-21T05:19:35.924Z,7.00
2023-01-21T05:22:06.893Z,5.47
2023-01-21T05:24:40.833Z,6.28
2023-01-21T05:27:11.887Z,6.13
2023-01-21T05:29:43.874Z,5.53
2023-01-21T05:32:14.865Z,5.63
2023-01-21T05:34:46.184Z,4.93
2023-01-21T05:37:17.268Z,4.80
2023-01-21T05:39:51.243Z,5.10
2023-01-21T05:42:22.055Z,7.35
2023-01-21T05:44:53.295Z,5.70
2023-01-21T05:47:24.152Z,5.90
2023-01-21T05:49:55.567Z,4.85
2023-01-21T05:52:26.561Z,5.10
2023-01-21T05:55:02.538Z,4.80
2023-01-21T05:57:35.037Z,5.45
2023-01-21T06:00:06.814Z,11.32
2023-01-21T06:02:37.818Z,6.13
2023-01-21T06:05:11.122Z,4.18
2023-01-21T06:07:42.012Z,5.05
2023-01-21T06:10:16.456Z,4.65
2023-01-21T06:12:47.504Z,5.13
2023-01-21T06:15:18.918Z,5.15
2023-01-21T06:17:50.251Z,5.63
2023-01-21T06:20:21.781Z,6.88
2023-01-21T06:22:52.713Z,6.13
2023-01-21T06:25:26.739Z,6.82
2023-01-21T06:27:58.323Z,7.38
2023-01-21T06:30:29.763Z,9.23
2023-01-21T06:33:00.720Z,8.48
2023-01-21T06:35:32.540Z,5.13
2023-01-21T06:38:03.617Z,5.88
2023-01-21T06:40:37.519Z,5.50
2023-01-21T06:43:08.391Z,5.57
2023-01-21T06:45:40.197Z,6.13
2023-01-21T06:48:11.204Z,6.57
2023-01-21T06:50:42.533Z,6.22
2023-01-21T06:53:13.409Z,7.68
2023-01-21T06:55:48.290Z,5.72
2023-01-21T06:58:19.345Z,8.32
2023-01-21T07:00:51.184Z,5.50
2023-01-21T07:03:22.837Z,5.85
2023-01-21T07:05:57.917Z,4.95
2023-01-21T07:08:29.016Z,4.55
2023-01-21T07:11:04.646Z,5.35
2023-01-21T07:13:36.450Z,6.13
2023-01-21T07:16:10.958Z,5.78
2023-01-21T07:18:42.647Z,4.43
2023-01-21T07:21:14.289Z,4.65
2023-01-21T07:23:46.971Z,4.70
2023-01-21T07:26:21.843Z,5.32
2023-01-21T07:28:53.234Z,6.95
2023-01-21T07:31:24.824Z,6.57
2023-01-21T07:33:56.083Z,8.00
2023-01-21T07:36:28.708Z,7.18
2023-01-21T07:39:00.167Z,6.28
2023-01-21T07:41:34.193Z,8.73
2023-01-21T07:44:07.779Z,11.35
2023-01-21T07:46:39.615Z,8.65
2023-01-21T07:49:13.158Z,7.38
2023-01-21T07:51:44.407Z,6.75
2023-01-21T07:56:50.006Z,3.63
2023-01-21T07:59:21.770Z,5.22
2023-01-21T08:01:54.794Z,5.85
2023-01-21T08:04:26.021Z,6.30
2023-01-21T08:06:59.181Z,4.82
2023-01-21T08:09:30.178Z,4.93
2023-01-21T08:12:04.106Z,3.70
2023-01-21T08:14:35.406Z,5.10
2023-01-21T08:17:07.455Z,3.55
2023-01-21T08:19:38.867Z,5.68
2023-01-21T08:22:10.769Z,3.95
2023-01-21T08:24:43.595Z,2.83
2023-01-21T08:27:17.864Z,3.50
2023-01-21T08:29:49.414Z,4.32
2023-01-21T08:32:22.596Z,5.47
2023-01-21T08:34:54.456Z,5.68
2023-01-21T08:37:26.041Z,5.32
2023-01-21T08:39:57.085Z,6.78
2023-01-21T08:42:31.128Z,5.65
2023-01-21T08:45:02.161Z,5.80
2023-01-21T08:47:37.221Z,7.65
2023-01-21T08:50:10.079Z,5.20
2023-01-21T08:52:41.326Z,6.07
2023-01-21T08:55:13.241Z,5.45
2023-01-21T08:57:47.109Z,5.82
2023-01-21T09:00:19.052Z,6.15
2023-01-21T09:02:51.889Z,5.75
2023-01-21T09:05:23.649Z,8.25
2023-01-21T09:07:58.087Z,7.47
2023-01-21T09:10:41.703Z,6.32
2023-01-21T09:13:20.211Z,7.63
2023-01-21T09:15:51.515Z,9.38
2023-01-21T09:18:22.928Z,7.22
2023-01-21T09:20:53.979Z,7.55
2023-01-21T09:23:28.629Z,9.63
2023-01-21T09:26:04.937Z,7.95
2023-01-21T09:28:42.549Z,7.97
2023-01-21T09:31:15.610Z,8.77
2023-01-21T09:33:49.059Z,9.38
2023-01-21T09:36:22.757Z,9.00
2023-01-21T09:38:55.016Z,11.18
2023-01-21T09:41:32.239Z,9.75
2023-01-21T09:44:16.624Z,11.70
2023-01-21T09:46:53.532Z,11.38
2023-01-21T09:49:30.689Z,9.43
2023-01-21T09:52:09.159Z,10.85
2023-01-21T09:54:42.492Z,11.35
2023-01-21T09:57:38.244Z,11.23
2023-01-21T10:00:27.819Z,13.85
2023-01-21T10:03:05.136Z,12.55
2023-01-21T10:06:02.365Z,14.20
2023-01-21T10:08:39.891Z,14.65
2023-01-21T10:11:23.619Z,12.35
2023-01-21T10:14:09.410Z,13.98
2023-01-21T10:16:50.025Z,15.18
2023-01-21T10:19:28.563Z,12.45
2023-01-21T10:22:05.123Z,12.93
2023-01-21T10:24:41.778Z,15.52
2023-01-21T10:27:18.570Z,20.05
2023-01-21T10:29:54.682Z,13.60
2023-01-21T10:32:31.264Z,14.82
2023-01-21T10:35:02.325Z,14.13
2023-01-21T10:37:39.609Z,15.15
2023-01-21T10:40:38.629Z,14.95
2023-01-21T10:43:14.778Z,16.88
2023-01-21T10:45:52.473Z,17.77
2023-01-21T10:48:35.569Z,13.90
2023-01-21T10:51:15.973Z,33.85
2023-01-21T10:56:29.907Z,17.85
2023-01-21T10:59:05.345Z,17.80
2023-01-21T11:01:39.076Z,18.13
2023-01-21T11:04:17.621Z,15.68
2023-01-21T11:06:52.463Z,15.50
2023-01-21T11:09:24.852Z,17.55
2023-01-21T11:11:55.753Z,17.42
2023-01-21T11:14:28.945Z,17.67
2023-01-21T11:17:00.575Z,14.40
2023-01-21T11:19:35.432Z,16.80
2023-01-21T11:22:09.170Z,15.57
2023-01-21T11:24:47.286Z,16.63
2023-01-21T11:27:23.776Z,16.50
2023-01-21T11:29:55.374Z,15.63
2023-01-21T11:32:28.856Z,17.05
2023-01-21T11:35:06.359Z,16.33
2023-01-21T11:37:39.081Z,19.83
2023-01-21T11:40:20.620Z,19.10
2023-01-21T11:42:53.774Z,19.40
2023-01-21T11:45:32.160Z,17.98
2023-01-21T11:48:04.089Z,17.02
2023-01-21T11:50:39.043Z,17.52
2023-01-21T11:53:17.633Z,20.13
2023-01-21T11:55:51.355Z,17.67
2023-01-21T11:58:25.780Z,18.50
2023-01-21T12:00:59.433Z,16.83
2023-01-21T12:03:34.329Z,17.60
2023-01-21T12:06:10.702Z,20.98
2023-01-21T12:08:43.590Z,18.27
2023-01-21T12:11:21.035Z,17.67
2023-01-21T12:14:00.993Z,17.15
2023-01-21T12:16:36.465Z,12.52
2023-01-21T12:19:29.850Z,18.40
2023-01-21T12:22:33.596Z,17.77
2023-01-21T12:25:29.220Z,17.60
2023-01-21T12:28:14.371Z,18.35
2023-01-21T12:30:51.595Z,19.40
2023-01-21T12:33:27.005Z,17.58
2023-01-21T12:36:01.649Z,19.05
2023-01-21T12:38:38.950Z,19.20
2023-01-21T12:41:18.660Z,17.60
2023-01-21T12:43:53.275Z,18.07
2023-01-21T12:46:27.801Z,22.55
2023-01-21T12:49:05.565Z,23.77
2023-01-21T12:51:40.638Z,19.98
2023-01-21T12:54:21.011Z,19.17
2023-01-21T12:56:59.769Z,15.33
2023-01-21T12:59:36.307Z,18.38
2023-01-21T13:02:18.838Z,17.63
2023-01-21T13:04:59.615Z,19.73
2023-01-21T13:07:40.453Z,20.02
2023-01-21T13:10:20.168Z,18.33
2023-01-21T13:12:59.126Z,19.83
2023-01-21T13:15:33.988Z,19.95
2023-01-21T13:18:12.263Z,19.38
2023-01-21T13:20:48.764Z,18.67
2023-01-21T13:23:29.571Z,18.08
2023-01-21T13:26:05.303Z,22.05
2023-01-21T13:28:44.070Z,22.65
2023-01-21T13:31:22.257Z,21.02
2023-01-21T13:34:01.396Z,22.65
2023-01-21T13:36:47.482Z,26.88
2023-01-21T13:39:26.677Z,22.15
2023-01-21T13:42:11.463Z,24.83
2023-01-21T13:45:18.012Z,22.02
2023-01-21T13:48:23.123Z,26.13
2023-01-21T13:51:07.479Z,22.23
2023-01-21T13:54:10.965Z,24.08
2023-01-21T13:57:01.110Z,24.58
2023-01-21T13:59:40.099Z,26.98
2023-01-21T14:02:20.051Z,28.08
2023-01-21T14:04:56.551Z,27.83
2023-01-21T14:07:33.503Z,29.38
2023-01-21T14:10:10.020Z,23.55
2023-01-21T14:13:09.669Z,29.25
2023-01-21T14:15:54.913Z,30.73
2023-01-21T14:18:49.833Z,34.50
2023-01-21T14:21:45.892Z,28.00
2023-01-21T14:24:30.122Z,23.10
2023-01-21T14:27:15.423Z,26.35
2023-01-21T14:29:50.328Z,26.52
2023-01-21T14:32:27.213Z,23.80
2023-01-21T14:35:10.733Z,28.92
2023-01-21T14:37:47.179Z,29.52
2023-01-21T14:40:23.712Z,27.83
2023-01-21T14:42:56.311Z,23.40
2023-01-21T14:45:57.190Z,23.08
2023-01-21T14:48:33.781Z,30.15
2023-01-21T14:51:25.760Z,27.08
2023-01-21T14:54:03.328Z,26.92
2023-01-21T14:56:36.817Z,23.80
2023-01-21T14:59:11.212Z,24.73
2023-01-21T15:01:45.534Z,22.30
2023-01-21T15:04:28.456Z,25.42
2023-01-21T15:07:04.660Z,22.20
2023-01-21T15:09:40.579Z,26.17
2023-01-21T15:12:18.996Z,31.27
2023-01-21T15:14:50.737Z,29.77
2023-01-21T15:18:04.169Z,28.10
2023-01-21T15:20:50.026Z,28.77
2023-01-21T15:23:37.958Z,42.65
2023-01-21T15:26:35.353Z,34.92
2023-01-21T15:29:36.030Z,35.53
2023-01-21T15:35:04.099Z,39.30
2023-01-21T15:37:40.190Z,42.00
2023-01-21T15:40:22.451Z,31.65
2023-01-21T15:43:01.729Z,34.55
2023-01-21T15:45:39.998Z,28.20
2023-01-21T15:48:40.905Z,33.03
2023-01-21T15:51:22.892Z,27.20
2023-01-21T15:54:12.524Z,33.45
2023-01-21T15:57:00.044Z,26.65
2023-01-21T15:59:51.320Z,28.70
2023-01-21T16:02:28.462Z,27.85
2023-01-21T16:05:18.244Z,30.13
2023-01-21T16:08:02.756Z,33.97
2023-01-21T16:10:42.549Z,30.60
2023-01-21T16:13:24.111Z,38.08
2023-01-21T16:16:09.645Z,31.15
2023-01-21T16:18:53.351Z,29.40
2023-01-21T16:21:27.700Z,31.33
2023-01-21T16:24:02.950Z,32.85
2023-01-21T16:26:35.035Z,33.20
2023-01-21T16:29:14.112Z,30.20
2023-01-21T16:31:52.377Z,37.25
2023-01-21T16:34:42.908Z,24.90
2023-01-21T16:39:47.773Z,35.53
2023-01-21T16:42:36.901Z,29.05
2023-01-21T16:45:20.841Z,30.02
2023-01-21T16:47:59.785Z,34.20
2023-01-21T16:50:33.861Z,29.95
2023-01-21T16:53:30.622Z,31.13
2023-01-21T16:56:03.261Z,36.20
2023-01-21T16:58:37.554Z,31.20
2023-01-21T17:01:14.323Z,29.23
2023-01-21T17:03:47.479Z,31.38
2023-01-21T17:06:25.459Z,28.55
2023-01-21T17:09:05.319Z,31.13
2023-01-21T17:11:39.384Z,27.65
2023-01-21T17:14:12.632Z,48.50
2023-01-21T17:16:46.594Z,31.33
2023-01-21T17:19:24.602Z,43.38
2023-01-21T17:22:01.937Z,36.10
2023-01-21T17:24:44.292Z,34.80
2023-01-21T17:27:21.983Z,33.08
2023-01-21T17:29:53.755Z,28.98
2023-01-21T17:32:29.619Z,30.95
2023-01-21T17:35:15.578Z,28.50
2023-01-21T17:37:56.592Z,33.97
2023-01-21T17:40:34.801Z,31.88
2023-01-21T17:43:19.609Z,30.23
2023-01-21T17:45:53.153Z,32.40
2023-01-21T17:48:32.023Z,33.50
2023-01-21T17:51:15.816Z,30.27
2023-01-21T17:53:56.435Z,33.67
2023-01-21T17:56:46.485Z,36.72
2023-01-21T17:59:34.470Z,39.15
2023-01-21T18:02:07.797Z,44.40
2023-01-21T18:04:41.120Z,32.25
2023-01-21T18:07:27.073Z,29.90
2023-01-21T18:10:05.234Z,26.45
2023-01-21T18:12:39.608Z,34.45
2023-01-21T18:15:16.329Z,33.35
2023-01-21T18:17:50.580Z,29.25
2023-01-21T18:20:24.602Z,29.58
2023-01-21T18:22:57.867Z,36.97
2023-01-21T18:25:30.663Z,30.45
2023-01-21T18:28:07.136Z,31.88
2023-01-21T18:30:40.747Z,40.10
2023-01-21T18:33:14.184Z,39.63
2023-01-21T18:35:48.033Z,29.98
2023-01-21T18:38:27.709Z,30.13
2023-01-21T18:41:00.527Z,30.10
2023-01-21T18:43:35.050Z,34.33
2023-01-21T18:46:14.816Z,34.47
2023-01-21T18:48:46.345Z,43.08
2023-01-21T18:51:17.956Z,28.65
2023-01-21T18:53:49.379Z,29.52
2023-01-21T18:56:21.963Z,37.83
2023-01-21T18:58:56.275Z,35.35
2023-01-21T19:01:28.190Z,26.17
2023-01-21T19:04:04.485Z,26.55
2023-01-21T19:06:36.932Z,31.65
2023-01-21T19:09:16.972Z,27.58
2023-01-21T19:11:55.067Z,31.63
2023-01-21T19:14:28.953Z,29.98
2023-01-21T19:17:01.020Z,23.88
2023-01-21T19:19:32.495Z,25.35
2023-01-21T19:22:03.982Z,26.30
2023-01-21T19:24:35.563Z,26.88
2023-01-21T19:27:07.214Z,29.90
2023-01-21T19:29:40.860Z,27.20
2023-01-21T19:32:15.874Z,29.23
2023-01-21T19:34:47.546Z,25.33
2023-01-21T19:37:21.169Z,25.35
2023-01-21T19:39:52.360Z,28.02
2023-01-21T19:42:23.807Z,26.17
2023-01-21T19:44:59.518Z,25.92
2023-01-21T19:47:32.649Z,31.35
2023-01-21T19:50:05.977Z,30.55
2023-01-21T19:52:38.377Z,27.13
2023-01-21T19:55:10.437Z,26.98
2023-01-21T19:57:42.025Z,24.00
2023-01-21T20:00:26.427Z,26.80
2023-01-21T20:02:58.609Z,28.58
2023-01-21T20:05:33.908Z,25.92
2023-01-21T20:08:05.673Z,31.15
2023-01-21T20:10:36.563Z,23.55
2023-01-21T20:13:09.080Z,25.27
2023-01-21T20:15:43.605Z,25.75
2023-01-21T20:18:21.199Z,26.40
2023-01-21T20:20:52.613Z,21.90
2023-01-21T20:23:27.030Z,26.27
2023-01-21T20:26:01.184Z,24.30
2023-01-21T20:28:39.986Z,23.80
2023-01-21T20:31:14.796Z,23.33
2023-01-21T20:33:46.542Z,25.50
2023-01-21T20:36:22.202Z,22.58
2023-01-21T20:38:55.337Z,22.77
2023-01-21T20:41:26.555Z,22.83
2023-01-21T20:43:58.435Z,21.95
2023-01-21T20:46:33.498Z,21.67
2023-01-21T20:49:04.866Z,27.92
2023-01-21T20:51:35.915Z,28.02
2023-01-21T20:54:07.863Z,29.45
2023-01-21T20:56:38.802Z,31.20
2023-01-21T20:59:11.982Z,27.77
2023-01-21T21:01:47.473Z,43.63
2023-01-21T21:04:21.968Z,31.75
2023-01-21T21:06:53.407Z,27.08
2023-01-21T21:09:25.857Z,27.10
2023-01-21T21:11:57.076Z,28.35
2023-01-21T21:14:29.356Z,23.67
2023-01-21T21:17:03.335Z,23.92
2023-01-21T21:19:35.409Z,20.08
2023-01-21T21:22:07.205Z,21.73
2023-01-21T21:24:39.160Z,20.42
2023-01-21T21:27:14.251Z,20.25
2023-01-21T21:29:48.139Z,20.65
2023-01-21T21:32:21.923Z,19.73
2023-01-21T21:35:01.627Z,20.83
2023-01-21T21:37:33.729Z,13.45
2023-01-21T21:40:06.313Z,18.65
2023-01-21T21:42:50.293Z,20.88
2023-01-21T21:45:23.048Z,20.00
2023-01-21T21:48:10.488Z,21.85
2023-01-21T21:50:41.977Z,15.68
2023-01-21T21:53:14.081Z,21.02
2023-01-21T21:55:46.253Z,19.65
2023-01-21T21:58:17.510Z,21.60
2023-01-21T22:00:54.356Z,20.25
2023-01-21T22:03:29.450Z,18.70
2023-01-21T22:06:04.261Z,18.33
2023-01-21T22:08:36.680Z,17.25
2023-01-21T22:11:10.290Z,18.63
2023-01-21T22:13:44.092Z,16.70
2023-01-21T22:16:18.880Z,16.92
2023-01-21T22:18:53.474Z,17.65
2023-01-21T22:21:27.156Z,15.50
2023-01-21T22:23:58.932Z,17.45
2023-01-21T22:26:31.230Z,15.98
2023-01-21T22:29:03.168Z,13.55
2023-01-21T22:31:36.068Z,17.85
2023-01-21T22:34:10.460Z,15.38
2023-01-21T22:36:47.407Z,15.27
2023-01-21T22:39:21.079Z,16.20
2023-01-21T22:42:00.652Z,17.23
2023-01-21T22:44:37.669Z,16.25
2023-01-21T22:47:14.186Z,15.38
2023-01-21T22:49:50.433Z,15.77
2023-01-21T22:52:22.442Z,16.00
2023-01-21T22:54:53.683Z,14.90
2023-01-21T22:57:26.828Z,14.73
2023-01-21T22:59:58.127Z,14.73
2023-01-21T23:02:30.172Z,15.73
2023-01-21T23:05:04.348Z,16.00
2023-01-21T23:07:36.851Z,18.08
2023-01-21T23:10:08.857Z,16.85
2023-01-21T23:12:40.221Z,17.35
2023-01-21T23:15:13.042Z,17.35
2023-01-21T23:17:44.369Z,16.50
2023-01-21T23:20:18.658Z,15.13
2023-01-21T23:22:50.631Z,15.95
2023-01-21T23:25:21.730Z,15.75
2023-01-21T23:27:53.990Z,16.23
2023-01-21T23:30:25.070Z,16.05
2023-01-21T23:32:56.651Z,14.82
2023-01-21T23:35:31.116Z,15.70
2023-01-21T23:38:03.019Z,14.18
2023-01-21T23:40:34.138Z,17.40
2023-01-21T23:43:05.439Z,15.38
2023-01-21T23:45:36.377Z,15.45
2023-01-21T23:48:09.093Z,15.50
2023-01-21T23:50:42.744Z,16.08
2023-01-21T23:53:14.076Z,14.98
2023-01-21T23:55:45.822Z,17.38
2023-01-21T23:58:17.205Z,15.80
